This is the latest recevied weather packets stored in our database for station/object CT2IRJ-11. If no packets are shown the sender has not sent any weather packets the latest 1 day(s).
| Time | Temp. | Humidity | Pressure | Rain* | Wind** | Luminosity | Snow |
|---|---|---|---|---|---|---|---|
| 1778059110 | 18.89° C | 64% | 1013.9 hPa | 0 mm | - | 610 W/m² | - |
| 1778058810 | 18.89° C | 65% | 1014.2 hPa | 0 mm | - | 588 W/m² | - |
| 1778058510 | 18.33° C | 67% | 1014.2 hPa | 0 mm | - | 554 W/m² | - |
| 1778058210 | 18.33° C | 66% | 1013.9 hPa | 0 mm | - | 498 W/m² | - |
| 1778057909 | 17.78° C | 68% | 1014.2 hPa | 0 mm | - | 483 W/m² | - |
| 1778057610 | 17.78° C | 70% | 1014.2 hPa | 0 mm | - | 460 W/m² | - |
| 1778057010 | 17.78° C | 69% | 1014.2 hPa | 0 mm | - | 353 W/m² | - |
| 1778056710 | 17.78° C | 69% | 1014.2 hPa | 0 mm | - | 305 W/m² | - |
| 1778056410 | 17.78° C | 70% | 1014.2 hPa | 0 mm | - | 303 W/m² | - |
| 1778055510 | 17.78° C | 72% | 1014.6 hPa | 0 mm | - | 292 W/m² | - |
| 1778055210 | 17.22° C | 75% | 1014.6 hPa | 0 mm | - | 258 W/m² | - |
| 1778054912 | 16.67° C | 76% | 1014.6 hPa | 0 mm | - | 231 W/m² | - |
| 1778054610 | 16.11° C | 78% | 1014.6 hPa | 0 mm | - | 206 W/m² | - |
| 1778054009 | 16.11° C | 78% | 1014.2 hPa | 0 mm | - | 197 W/m² | - |
| 1778053710 | 15.56° C | 81% | 1014.2 hPa | 0 mm | - | 177 W/m² | - |
| 1778052210 | 13.33° C | 91% | 1014.2 hPa | 0 mm | - | 133 W/m² | - |
| 1778051310 | 12.22° C | 92% | 1014.6 hPa | 0 mm | - | 71 W/m² | - |
| 1778051010 | 11.67° C | 92% | 1014.6 hPa | 0 mm | - | 61 W/m² | - |
| 1778050710 | 11.67° C | 92% | 1014.6 hPa | 0 mm | - | 58 W/m² | - |
| 1778050110 | 10.56° C | 93% | 1014.6 hPa | 0 mm | - | 44 W/m² | - |
| 1778049510 | 10° C | 94% | 1014.2 hPa | 0 mm | - | 39 W/m² | - |
| 1778049210 | 8.89° C | 94% | 1014.2 hPa | 0 mm | - | 35 W/m² | - |
| 1778048310 | 8.33° C | 94% | 1014.2 hPa | 0 mm | - | 21 W/m² | - |
| 1778048009 | 8.33° C | 94% | 1014.2 hPa | 0 mm | - | 20 W/m² | - |
| 1778047711 | 7.78° C | 94% | 1013.9 hPa | 0 mm | - | 17 W/m² | - |
* Rain latest hour (hover to see other rain measurements)
** Current wind speed in m/s (hover to see current wind gust speed)